Time;durP1;ratioP1;P1;durP2;ratioP2;P2;SDS_P1;SDS_P2;PMS_P1;PMS_P2;Temp;Humidity;BMP_temperature;BMP_pressure;BME280_temperature;BME280_humidity;BME280_pressure;Samples;Min_cycle;Max_cycle;Signal;HPM_P1;HPM_P2
2022/12/11 00:00:25;;;;;;;59.05;34.92;;;3.20;99.90;;;;;;2076677;28;20117;-70
2022/12/11 00:01:25;;;;;;;62.47;33.63;;;3.20;99.90;;;;;;2076591;28;20029;-70
2022/12/11 00:02:28;;;;;;;55.47;32.25;;;3.20;99.90;;;;;;2073885;28;20017;-70
2022/12/11 00:03:28;;;;;;;58.35;34.00;;;3.20;99.90;;;;;;2074678;28;20455;-70
2022/12/11 00:04:29;;;;;;;60.30;33.65;;;3.20;99.90;;;;;;2075747;28;20018;-70
2022/12/11 00:05:30;;;;;;;59.42;35.25;;;3.20;99.90;;;;;;2074459;28;20492;-70
2022/12/11 00:06:30;;;;;;;57.33;33.35;;;3.20;99.90;;;;;;2075577;28;20440;-70
2022/12/11 00:07:31;;;;;;;60.78;34.83;;;3.20;99.90;;;;;;2075410;28;20377;-70
2022/12/11 00:08:31;;;;;;;58.70;32.92;;;3.20;99.90;;;;;;2074087;28;20037;-70
2022/12/11 00:09:32;;;;;;;58.30;32.42;;;3.20;99.90;;;;;;2075261;28;20034;-70
2022/12/11 00:10:33;;;;;;;56.05;32.78;;;3.20;99.90;;;;;;2074624;28;20022;-70
2022/12/11 00:11:33;;;;;;;61.65;33.30;;;3.20;99.90;;;;;;2076587;28;20087;-70
2022/12/11 00:12:34;;;;;;;59.55;34.92;;;3.20;99.90;;;;;;2076175;28;20022;-70
2022/12/11 00:13:34;;;;;;;60.60;35.83;;;3.20;99.90;;;;;;2078687;28;20010;-70
2022/12/11 00:14:35;;;;;;;55.38;31.60;;;3.20;99.90;;;;;;2078491;28;20111;-70
2022/12/11 00:15:37;;;;;;;59.80;32.67;;;3.20;99.90;;;;;;2076428;28;20071;-70
2022/12/11 00:16:37;;;;;;;61.08;34.28;;;3.20;99.90;;;;;;2078130;28;20057;-70
2022/12/11 00:17:38;;;;;;;56.00;31.88;;;3.20;99.90;;;;;;2076245;28;20037;-70
2022/12/11 00:18:39;;;;;;;60.40;33.80;;;3.20;99.90;;;;;;2077910;28;20025;-70
2022/12/11 00:19:39;;;;;;;63.45;34.92;;;3.20;99.90;;;;;;2077119;28;20822;-70
2022/12/11 00:20:40;;;;;;;63.85;35.40;;;3.20;99.90;;;;;;2077165;28;20466;-70
2022/12/11 00:21:41;;;;;;;61.28;33.40;;;3.30;99.90;;;;;;2076678;28;20532;-70
2022/12/11 00:22:41;;;;;;;60.75;34.75;;;3.30;99.90;;;;;;2077642;28;20447;-70
2022/12/11 00:23:42;;;;;;;56.65;33.90;;;3.30;99.90;;;;;;2077889;28;20044;-70
2022/12/11 00:24:43;;;;;;;51.97;30.25;;;3.30;99.90;;;;;;2077762;28;20083;-70
2022/12/11 00:25:45;;;;;;;60.60;32.83;;;3.30;99.90;;;;;;2076950;28;20601;-70
2022/12/11 00:26:46;;;;;;;54.67;32.03;;;3.30;99.90;;;;;;2076850;28;20021;-70
2022/12/11 00:27:46;;;;;;;60.30;34.20;;;3.30;99.90;;;;;;2076346;28;20129;-70
2022/12/11 00:28:50;;;;;;;55.58;33.10;;;3.30;99.90;;;;;;2077515;28;20064;-70
2022/12/11 00:29:51;;;;;;;55.58;33.30;;;3.30;99.90;;;;;;2078699;28;20029;-70
2022/12/11 00:30:51;;;;;;;61.95;34.13;;;3.20;99.90;;;;;;2076282;28;20031;-70
2022/12/11 00:31:52;;;;;;;57.17;32.40;;;3.20;99.90;;;;;;2078753;28;20033;-70
2022/12/11 00:32:53;;;;;;;61.63;35.17;;;3.20;99.90;;;;;;2077005;28;20526;-70
2022/12/11 00:33:53;;;;;;;66.60;36.70;;;3.20;99.90;;;;;;2077840;28;20052;-70
2022/12/11 00:34:54;;;;;;;61.95;34.85;;;3.20;99.90;;;;;;2076742;28;20042;-70
2022/12/11 00:35:54;;;;;;;59.33;35.50;;;3.20;99.90;;;;;;2078142;28;20029;-70
2022/12/11 00:36:55;;;;;;;61.58;34.20;;;3.20;99.90;;;;;;2078027;28;20120;-70
2022/12/11 00:37:55;;;;;;;63.88;36.25;;;3.20;99.90;;;;;;2077876;28;20469;-70
2022/12/11 00:38:56;;;;;;;64.13;35.65;;;3.20;99.90;;;;;;2077611;28;20037;-70
2022/12/11 00:39:57;;;;;;;65.05;36.05;;;3.20;99.90;;;;;;2078023;28;20026;-70
2022/12/11 00:40:58;;;;;;;54.63;33.70;;;3.20;99.90;;;;;;2074498;28;20041;-70
2022/12/11 00:41:59;;;;;;;66.80;37.47;;;3.20;99.90;;;;;;2080168;28;20075;-70
2022/12/11 00:43:00;;;;;;;72.22;39.65;;;3.20;99.90;;;;;;2077875;28;20079;-70
2022/12/11 00:44:00;;;;;;;63.42;35.92;;;3.20;99.90;;;;;;2076650;28;20559;-70
2022/12/11 00:45:01;;;;;;;66.40;37.70;;;3.20;99.90;;;;;;2078344;28;20469;-70
2022/12/11 00:46:02;;;;;;;73.13;38.88;;;3.20;99.90;;;;;;2076774;28;20022;-70
2022/12/11 00:47:03;;;;;;;75.40;38.72;;;3.20;99.90;;;;;;2077148;28;20096;-70
2022/12/11 00:48:04;;;;;;;69.55;37.47;;;3.20;99.90;;;;;;2078376;28;20055;-70
2022/12/11 00:49:04;;;;;;;71.18;37.63;;;3.20;99.90;;;;;;2078010;28;20040;-70
2022/12/11 00:50:05;;;;;;;69.03;37.63;;;3.20;99.90;;;;;;2076874;28;20049;-70
2022/12/11 00:51:06;;;;;;;66.15;36.83;;;3.20;99.90;;;;;;2077712;28;20026;-70
2022/12/11 00:52:08;;;;;;;72.38;38.30;;;3.20;99.90;;;;;;2077446;28;20039;-70
2022/12/11 00:53:09;;;;;;;65.35;36.17;;;3.30;99.90;;;;;;2078257;28;20456;-70
2022/12/11 00:54:09;;;;;;;57.45;32.92;;;3.20;99.90;;;;;;2078316;28;20029;-70
2022/12/11 00:55:10;;;;;;;60.58;35.03;;;3.20;99.90;;;;;;2076861;28;20052;-70
2022/12/11 00:56:17;;;;;;;69.32;36.85;;;3.20;99.90;;;;;;2075894;28;20124;-70
2022/12/11 00:57:17;;;;;;;65.03;36.15;;;3.30;99.90;;;;;;2078484;28;20532;-70
2022/12/11 00:58:18;;;;;;;63.53;36.20;;;3.20;99.90;;;;;;2076273;28;20460;-70
2022/12/11 00:59:19;;;;;;;66.55;37.17;;;3.30;99.90;;;;;;2077334;28;20393;-70
2022/12/11 01:00:19;;;;;;;60.65;35.58;;;3.30;99.90;;;;;;2077430;28;20026;-70
2022/12/11 01:01:23;;;;;;;65.40;36.70;;;3.30;99.90;;;;;;2076122;28;20037;-70
2022/12/11 01:02:23;;;;;;;72.88;36.92;;;3.30;99.90;;;;;;2076108;28;20025;-70
2022/12/11 01:03:24;;;;;;;67.45;35.45;;;3.30;99.90;;;;;;2076957;28;20101;-70
2022/12/11 01:04:24;;;;;;;70.35;37.42;;;3.20;99.90;;;;;;2076148;28;20108;-70
2022/12/11 01:05:25;;;;;;;64.97;35.63;;;3.20;99.90;;;;;;2083185;28;20021;-70
2022/12/11 01:06:26;;;;;;;62.55;36.85;;;3.20;99.90;;;;;;2085468;28;20025;-70
2022/12/11 01:07:27;;;;;;;69.18;38.53;;;3.20;99.90;;;;;;2077884;28;20170;-70
2022/12/11 01:08:27;;;;;;;65.88;38.08;;;3.20;99.90;;;;;;2075847;28;20029;-70
2022/12/11 01:10:47;;;;;;;68.10;36.40;;;3.30;99.90;;;;;;2075079;28;20080;-70
2022/12/11 01:11:48;;;;;;;61.17;34.97;;;3.30;99.90;;;;;;2077826;28;20026;-70
2022/12/11 01:12:50;;;;;;;64.78;36.08;;;3.30;99.90;;;;;;2078971;28;20100;-70
2022/12/11 01:13:51;;;;;;;69.97;37.55;;;3.30;99.90;;;;;;2074007;28;20030;-70
2022/12/11 01:14:51;;;;;;;70.50;38.00;;;3.30;99.90;;;;;;2075509;28;20036;-70
2022/12/11 01:15:52;;;;;;;69.97;37.78;;;3.30;99.90;;;;;;2077752;28;20079;-70
2022/12/11 01:16:52;;;;;;;70.95;39.80;;;3.30;99.90;;;;;;2074059;28;20568;-70
2022/12/11 01:17:53;;;;;;;74.03;38.88;;;3.40;99.90;;;;;;2077454;28;20013;-70
2022/12/11 01:18:53;;;;;;;63.50;36.85;;;3.30;99.90;;;;;;2075524;28;20084;-70
2022/12/11 01:19:54;;;;;;;79.70;39.22;;;3.30;99.90;;;;;;2077379;28;20492;-70
2022/12/11 01:20:54;;;;;;;74.13;42.20;;;3.30;99.90;;;;;;2077317;28;21800;-70
2022/12/11 01:21:55;;;;;;;77.97;42.10;;;3.30;99.90;;;;;;2076623;28;20041;-70
2022/12/11 01:22:58;;;;;;;80.70;41.30;;;3.30;99.90;;;;;;2075499;28;20037;-70
2022/12/11 01:23:58;;;;;;;76.60;41.05;;;3.30;99.90;;;;;;2075937;28;20425;-70
2022/12/11 01:24:59;;;;;;;77.07;41.28;;;3.30;99.90;;;;;;2076546;28;20037;-70
2022/12/11 01:26:13;;;;;;;75.95;40.22;;;3.30;99.90;;;;;;2076870;28;20030;-70
2022/12/11 01:27:14;;;;;;;87.03;42.28;;;3.30;99.90;;;;;;2077882;28;20071;-70
2022/12/11 01:28:14;;;;;;;79.50;42.15;;;3.30;99.90;;;;;;2076163;28;20083;-70
2022/12/11 01:29:15;;;;;;;86.88;43.17;;;3.30;99.90;;;;;;2077345;28;20045;-70
2022/12/11 01:30:16;;;;;;;66.75;36.90;;;3.30;99.90;;;;;;2076826;28;20014;-70
2022/12/11 01:31:18;;;;;;;80.30;42.22;;;3.30;99.90;;;;;;2075439;28;20030;-70
2022/12/11 01:32:18;;;;;;;77.82;39.65;;;3.30;99.90;;;;;;2074998;28;20026;-70
2022/12/11 01:33:19;;;;;;;89.57;42.03;;;3.30;99.90;;;;;;2075824;28;20017;-70
2022/12/11 01:34:19;;;;;;;83.28;41.85;;;3.30;99.90;;;;;;2076083;28;20030;-70
2022/12/11 01:35:20;;;;;;;77.97;41.33;;;3.30;99.90;;;;;;2076252;28;20033;-70
2022/12/11 01:36:22;;;;;;;83.80;42.78;;;3.30;99.90;;;;;;2077394;28;20108;-70
2022/12/11 01:37:22;;;;;;;82.53;42.40;;;3.30;99.90;;;;;;2077956;28;20113;-70
2022/12/11 01:38:23;;;;;;;82.75;43.70;;;3.40;99.90;;;;;;2077137;28;20021;-70
2022/12/11 01:39:23;;;;;;;86.40;42.13;;;3.40;99.90;;;;;;2078385;28;20556;-70
2022/12/11 01:40:24;;;;;;;89.28;44.30;;;3.40;99.90;;;;;;2078389;28;20572;-70
2022/12/11 01:41:24;;;;;;;89.80;43.75;;;3.40;99.90;;;;;;2076834;28;20109;-70
2022/12/11 01:42:28;;;;;;;86.18;42.00;;;3.40;99.90;;;;;;2076586;28;20171;-70
2022/12/11 01:43:28;;;;;;;88.15;44.80;;;3.40;99.90;;;;;;2078441;28;20476;-70
2022/12/11 01:44:29;;;;;;;79.88;41.58;;;3.40;99.90;;;;;;2075239;28;20029;-70
2022/12/11 01:45:35;;;;;;;82.32;42.17;;;3.40;99.90;;;;;;2078159;28;20019;-70
2022/12/11 01:46:36;;;;;;;90.10;42.15;;;3.40;99.90;;;;;;2077851;28;20017;-70
2022/12/11 01:47:36;;;;;;;94.93;45.53;;;3.40;99.90;;;;;;2075843;28;20524;-70
2022/12/11 01:48:37;;;;;;;91.93;43.67;;;3.40;99.90;;;;;;2076338;28;20033;-70
2022/12/11 01:49:39;;;;;;;88.90;43.22;;;3.40;99.90;;;;;;2076615;28;20030;-70
2022/12/11 01:50:46;;;;;;;94.65;45.75;;;3.40;99.90;;;;;;2075982;28;20028;-70
2022/12/11 01:51:51;;;;;;;93.88;43.78;;;3.40;99.90;;;;;;2077098;28;20028;-70
2022/12/11 01:52:52;;;;;;;90.93;44.83;;;3.40;99.90;;;;;;2077300;28;20532;-70
2022/12/11 01:54:00;;;;;;;90.85;45.63;;;3.40;99.90;;;;;;2077923;28;20585;-70
2022/12/11 01:55:01;;;;;;;91.32;42.20;;;3.40;99.90;;;;;;2075892;28;20025;-70
2022/12/11 01:56:04;;;;;;;86.63;42.13;;;3.30;99.90;;;;;;2078057;28;20026;-70
2022/12/11 01:57:07;;;;;;;87.30;44.78;;;3.30;99.90;;;;;;2078014;28;20775;-70
2022/12/11 01:58:10;;;;;;;98.60;46.15;;;3.40;99.90;;;;;;2076587;28;20032;-70
2022/12/11 01:59:14;;;;;;;94.15;44.40;;;3.40;99.90;;;;;;2075420;28;20022;-70
2022/12/11 02:00:15;;;;;;;96.07;45.08;;;3.40;99.90;;;;;;2075804;28;20022;-69
2022/12/11 02:01:30;;;;;;;95.82;45.08;;;3.40;99.90;;;;;;2074756;28;20037;-69
2022/12/11 02:02:32;;;;;;;97.05;46.08;;;3.40;99.90;;;;;;2075136;28;20021;-69
2022/12/11 02:03:33;;;;;;;88.97;43.63;;;3.30;99.90;;;;;;2077785;28;20025;-69
2022/12/11 02:04:37;;;;;;;93.38;43.08;;;3.30;99.90;;;;;;2076887;28;20037;-69
2022/12/11 02:05:38;;;;;;;101.22;44.17;;;3.30;99.90;;;;;;2075938;28;20029;-69
2022/12/11 02:06:41;;;;;;;93.20;43.97;;;3.30;99.90;;;;;;2076772;28;20032;-69
2022/12/11 02:07:48;;;;;;;100.10;46.15;;;3.30;99.90;;;;;;2075465;28;20022;-69
2022/12/11 02:08:49;;;;;;;90.15;44.10;;;3.30;99.90;;;;;;2077156;28;20017;-69
2022/12/11 02:09:49;;;;;;;96.50;44.17;;;3.30;99.90;;;;;;2076451;28;20030;-69
2022/12/11 02:11:05;;;;;;;93.88;43.67;;;3.30;99.90;;;;;;2076447;28;20032;-69
2022/12/11 02:12:18;;;;;;;94.78;45.70;;;3.30;99.90;;;;;;2076154;28;20053;-69
2022/12/11 02:13:45;;;;;;;92.22;43.70;;;3.30;99.90;;;;;;2074633;28;20029;-69
2022/12/11 02:15:13;;;;;;;94.32;45.28;;;3.20;99.90;;;;;;2075370;28;20064;-69
2022/12/11 02:16:30;;;;;;;94.60;44.08;;;3.30;99.90;;;;;;2077881;28;20018;-69
2022/12/11 02:17:55;;;;;;;98.55;46.00;;;3.20;99.90;;;;;;2077262;28;20028;-69
2022/12/11 02:19:06;;;;;;;99.82;45.58;;;3.30;99.90;;;;;;2076203;28;20026;-69
2022/12/11 02:20:28;;;;;;;91.30;44.40;;;3.30;99.90;;;;;;2076391;28;20073;-69
2022/12/11 02:21:39;;;;;;;94.90;42.63;;;3.30;99.90;;;;;;2074872;28;20068;-69
2022/12/11 02:22:55;;;;;;;92.20;44.65;;;3.30;99.90;;;;;;2075300;28;20433;-69
2022/12/11 02:24:12;;;;;;;89.65;42.60;;;3.30;99.90;;;;;;2083618;28;20017;-69
2022/12/11 02:25:49;;;;;;;95.22;45.70;;;3.30;99.90;;;;;;2078193;28;20036;-69
2022/12/11 02:27:08;;;;;;;98.47;44.58;;;3.30;99.90;;;;;;2077287;28;20018;-69
2022/12/11 02:28:27;;;;;;;98.85;46.28;;;3.30;99.90;;;;;;2076892;28;20740;-69
2022/12/11 02:29:36;;;;;;;104.07;47.78;;;3.30;99.90;;;;;;2075862;28;20029;-69
2022/12/11 02:30:38;;;;;;;97.97;47.83;;;3.30;99.90;;;;;;2077900;28;20026;-69
2022/12/11 02:31:45;;;;;;;97.40;45.10;;;3.30;99.90;;;;;;2074842;28;20471;-69
2022/12/11 02:32:53;;;;;;;98.90;46.53;;;3.30;99.90;;;;;;2074761;28;20032;-69
2022/12/11 02:33:58;;;;;;;100.10;48.30;;;3.30;99.90;;;;;;2075950;28;20025;-69
2022/12/11 02:35:10;;;;;;;101.07;44.75;;;3.30;99.90;;;;;;2075911;28;20029;-69
2022/12/11 02:36:15;;;;;;;102.50;47.53;;;3.30;99.90;;;;;;2077579;28;20031;-69
2022/12/11 02:37:20;;;;;;;101.70;45.50;;;3.30;99.90;;;;;;2075010;28;20075;-69
2022/12/11 02:38:34;;;;;;;105.10;46.92;;;3.30;99.90;;;;;;2074613;28;20025;-69
2022/12/11 02:39:39;;;;;;;103.00;46.22;;;3.30;99.90;;;;;;2077796;28;20057;-69
2022/12/11 02:40:42;;;;;;;98.85;45.95;;;3.30;99.90;;;;;;2075708;28;20092;-69
2022/12/11 02:41:49;;;;;;;98.70;46.25;;;3.40;99.90;;;;;;2076687;28;20028;-69
2022/12/11 02:42:51;;;;;;;107.97;46.25;;;3.40;99.90;;;;;;2075413;28;20116;-69
2022/12/11 02:43:54;;;;;;;104.53;46.88;;;3.40;99.90;;;;;;2075146;28;20040;-69
2022/12/11 02:44:56;;;;;;;104.88;49.08;;;3.40;99.90;;;;;;2076315;28;20018;-69
2022/12/11 02:45:58;;;;;;;108.53;48.55;;;3.40;99.90;;;;;;2074775;28;20108;-69
2022/12/11 02:46:59;;;;;;;104.10;47.20;;;3.40;99.90;;;;;;2073934;28;20118;-68
2022/12/11 02:48:04;;;;;;;97.10;45.00;;;3.40;99.90;;;;;;2075730;28;20083;-69
2022/12/11 02:49:06;;;;;;;98.72;47.58;;;3.40;99.90;;;;;;2076123;28;20055;-69
2022/12/11 02:50:14;;;;;;;100.57;44.90;;;3.40;99.90;;;;;;2082936;28;20060;-69
2022/12/11 02:51:17;;;;;;;98.97;46.28;;;3.40;99.90;;;;;;2082992;28;20033;-69
2022/12/11 02:52:22;;;;;;;97.38;46.25;;;3.40;99.90;;;;;;2076973;28;20393;-69
2022/12/11 02:53:26;;;;;;;99.28;46.40;;;3.40;99.90;;;;;;2076413;28;20157;-69
2022/12/11 02:54:30;;;;;;;102.40;46.92;;;3.40;99.90;;;;;;2075810;28;20017;-69
2022/12/11 02:55:32;;;;;;;105.22;47.85;;;3.40;99.90;;;;;;2075459;28;20370;-69
2022/12/11 02:56:39;;;;;;;101.47;47.83;;;3.40;99.90;;;;;;2074693;28;20097;-69
2022/12/11 02:57:46;;;;;;;101.88;46.90;;;3.40;99.90;;;;;;2075600;28;20029;-69
2022/12/11 02:58:54;;;;;;;99.28;46.22;;;3.40;99.90;;;;;;2075802;28;20029;-69
2022/12/11 02:59:54;;;;;;;98.88;45.30;;;3.50;99.90;;;;;;2076234;28;20033;-69
2022/12/11 03:00:55;;;;;;;100.97;46.88;;;3.50;99.90;;;;;;2077895;28;20017;-69
2022/12/11 03:01:56;;;;;;;98.30;45.45;;;3.50;99.90;;;;;;2076998;28;20478;-69
2022/12/11 03:02:57;;;;;;;96.35;45.45;;;3.50;99.90;;;;;;2074922;28;20033;-69
2022/12/11 03:03:57;;;;;;;87.15;44.03;;;3.50;99.90;;;;;;2082137;28;20493;-69
2022/12/11 03:04:58;;;;;;;85.72;43.13;;;3.50;99.90;;;;;;2084483;28;20080;-69
2022/12/11 03:05:59;;;;;;;92.47;44.97;;;3.50;99.90;;;;;;2077711;28;20029;-69
2022/12/11 03:07:10;;;;;;;100.93;48.65;;;3.50;99.90;;;;;;2077443;28;20037;-69
2022/12/11 03:08:17;;;;;;;91.93;45.67;;;3.50;99.90;;;;;;2074934;28;20030;-69
2022/12/11 03:09:18;;;;;;;97.10;46.55;;;3.50;99.90;;;;;;2076181;28;20533;-69
2022/12/11 03:10:19;;;;;;;91.82;44.67;;;3.50;99.90;;;;;;2075140;28;20044;-69
2022/12/11 03:11:20;;;;;;;93.57;45.03;;;3.50;99.90;;;;;;2077486;28;20025;-69
2022/12/11 03:12:27;;;;;;;95.93;46.03;;;3.50;99.90;;;;;;2077180;28;20034;-68
2022/12/11 03:13:27;;;;;;;98.50;46.25;;;3.50;99.90;;;;;;2076696;28;20033;-69
2022/12/11 03:14:28;;;;;;;91.13;45.17;;;3.50;99.90;;;;;;2075723;28;20124;-69
2022/12/11 03:16:07;;;;;;;90.47;44.17;;;3.50;99.90;;;;;;2076188;28;20045;-69
2022/12/11 03:17:33;;;;;;;90.57;45.30;;;3.50;99.90;;;;;;2075044;28;20056;-69
2022/12/11 03:18:41;;;;;;;85.53;41.97;;;3.40;99.90;;;;;;2074763;28;20030;-69
2022/12/11 03:19:46;;;;;;;87.03;43.45;;;3.40;99.90;;;;;;2076618;28;20029;-69
2022/12/11 03:21:00;;;;;;;82.60;41.83;;;3.40;99.90;;;;;;2077294;28;20030;-69
2022/12/11 03:22:16;;;;;;;83.43;40.97;;;3.40;99.90;;;;;;2076467;28;20033;-69
2022/12/11 03:23:23;;;;;;;76.35;38.55;;;3.40;99.90;;;;;;2075600;28;20076;-69
2022/12/11 03:24:52;;;;;;;85.50;42.47;;;3.40;99.90;;;;;;2073743;28;20521;-69
2022/12/11 03:26:04;;;;;;;85.82;40.47;;;3.40;99.90;;;;;;2075237;28;20137;-69
2022/12/11 03:27:26;;;;;;;78.72;42.25;;;3.40;99.90;;;;;;2074831;28;20018;-69
2022/12/11 03:28:58;;;;;;;82.90;40.58;;;3.40;99.90;;;;;;2077584;28;20116;-69
2022/12/11 03:30:09;;;;;;;71.18;36.33;;;3.40;99.90;;;;;;2076266;28;20167;-69
2022/12/11 03:31:13;;;;;;;75.57;36.97;;;3.40;99.90;;;;;;2076155;28;20029;-69
2022/12/11 03:32:21;;;;;;;75.85;39.72;;;3.40;99.90;;;;;;2074548;28;20041;-69
2022/12/11 03:33:38;;;;;;;75.75;40.15;;;3.40;99.90;;;;;;2075707;28;20994;-69
2022/12/11 03:34:49;;;;;;;78.55;41.17;;;3.50;99.90;;;;;;2076232;28;20131;-69
2022/12/11 03:35:59;;;;;;;67.07;36.25;;;3.40;99.90;;;;;;2076723;28;20037;-69
2022/12/11 03:37:02;;;;;;;74.13;38.95;;;3.40;99.90;;;;;;2076623;28;20073;-69
2022/12/11 03:38:07;;;;;;;65.43;36.15;;;3.40;99.90;;;;;;2076236;28;20026;-69
2022/12/11 03:39:39;;;;;;;66.57;36.40;;;3.40;99.90;;;;;;2074434;28;20033;-69
2022/12/11 03:40:43;;;;;;;71.80;37.05;;;3.40;99.90;;;;;;2074947;28;20042;-69
2022/12/11 03:41:45;;;;;;;66.72;36.88;;;3.40;99.90;;;;;;2076789;28;20116;-69
2022/12/11 03:42:51;;;;;;;68.22;36.90;;;3.40;99.90;;;;;;2077157;28;20029;-69
2022/12/11 03:43:55;;;;;;;59.25;33.28;;;3.40;99.90;;;;;;2078367;28;20017;-69
2022/12/11 03:44:57;;;;;;;59.72;33.88;;;3.40;99.90;;;;;;2073459;28;20061;-69
2022/12/11 03:45:59;;;;;;;64.78;35.60;;;3.40;99.90;;;;;;2075437;28;21637;-69
2022/12/11 03:47:02;;;;;;;61.67;35.78;;;3.40;99.90;;;;;;2077174;28;20494;-69
2022/12/11 03:48:03;;;;;;;56.72;34.17;;;3.40;99.90;;;;;;2076086;28;20037;-69
2022/12/11 03:49:11;;;;;;;60.17;33.58;;;3.40;99.90;;;;;;2075774;28;20028;-69
2022/12/11 03:50:15;;;;;;;59.75;34.15;;;3.40;99.90;;;;;;2075620;28;20026;-69
2022/12/11 03:51:17;;;;;;;57.05;33.50;;;3.40;99.90;;;;;;2075606;28;20115;-69
2022/12/11 03:52:18;;;;;;;60.78;35.42;;;3.40;99.90;;;;;;2074120;28;20737;-69
2022/12/11 03:53:20;;;;;;;63.10;35.80;;;3.40;99.90;;;;;;2075964;28;20040;-69
2022/12/11 03:54:22;;;;;;;65.75;36.20;;;3.40;99.90;;;;;;2076804;28;20034;-69
2022/12/11 03:55:23;;;;;;;68.88;38.00;;;3.40;99.90;;;;;;2075387;28;20036;-69
2022/12/11 03:56:27;;;;;;;60.25;35.35;;;3.50;99.90;;;;;;2076530;28;20051;-69
2022/12/11 03:57:31;;;;;;;67.20;37.13;;;3.40;99.90;;;;;;2076259;28;20048;-69
2022/12/11 03:58:32;;;;;;;63.65;36.75;;;3.40;99.90;;;;;;2076857;28;20036;-69
2022/12/11 03:59:32;;;;;;;60.10;35.03;;;3.40;99.90;;;;;;2074350;28;20036;-69
2022/12/11 04:00:33;;;;;;;66.63;36.22;;;3.40;99.90;;;;;;2083534;28;20056;-69
2022/12/11 04:01:34;;;;;;;63.53;36.13;;;3.40;99.90;;;;;;2084689;28;20021;-69
2022/12/11 04:02:34;;;;;;;66.10;35.08;;;3.40;99.90;;;;;;2074846;28;20038;-69
2022/12/11 04:03:36;;;;;;;66.50;37.83;;;3.40;99.90;;;;;;2076964;28;20421;-69
2022/12/11 04:04:38;;;;;;;65.05;34.13;;;3.40;99.90;;;;;;2076308;28;20026;-69
2022/12/11 04:05:41;;;;;;;66.88;36.95;;;3.40;99.90;;;;;;2075207;28;20021;-69
2022/12/11 04:06:42;;;;;;;65.85;37.53;;;3.50;99.90;;;;;;2076222;28;20121;-69
2022/12/11 04:07:43;;;;;;;69.90;37.28;;;3.40;99.90;;;;;;2073845;28;20052;-69
2022/12/11 04:08:43;;;;;;;65.93;37.75;;;3.40;99.90;;;;;;2077467;28;20029;-69
2022/12/11 04:09:44;;;;;;;64.80;34.35;;;3.40;99.90;;;;;;2074568;28;20687;-69
2022/12/11 04:10:44;;;;;;;67.38;35.67;;;3.50;99.90;;;;;;2075250;28;20100;-69
2022/12/11 04:11:45;;;;;;;68.35;35.75;;;3.40;99.90;;;;;;2076339;28;20056;-69
2022/12/11 04:12:45;;;;;;;64.72;36.13;;;3.50;99.90;;;;;;2075232;28;20013;-69
2022/12/11 04:15:00;;;;;;;62.42;35.80;;;3.50;99.90;;;;;;2075156;28;20072;-69
2022/12/11 04:15:06;;;;;;;;;;;3.40;99.90;;;;;;2076339;28;20037;-69
2022/12/11 04:16:07;;;;;;;64.00;35.10;;;3.40;99.90;;;;;;2072959;28;19909;-69
2022/12/11 04:17:08;;;;;;;59.67;33.53;;;3.40;99.90;;;;;;2075632;28;20057;-69
2022/12/11 04:24:37;;;;;;;66.90;36.58;;;3.40;99.90;;;;;;2075408;28;20029;-69
2022/12/11 04:25:37;;;;;;;63.42;35.85;;;3.50;99.90;;;;;;2073417;28;20030;-69
2022/12/11 04:26:38;;;;;;;62.88;36.40;;;3.50;99.90;;;;;;2074575;28;20026;-69
2022/12/11 04:27:50;;;;;;;64.88;36.40;;;3.50;99.90;;;;;;2075899;28;20049;-69
2022/12/11 04:28:51;;;;;;;63.03;34.97;;;3.50;99.90;;;;;;2075477;28;20033;-69
2022/12/11 04:29:51;;;;;;;64.55;34.75;;;3.50;99.90;;;;;;2075805;28;20100;-69
2022/12/11 04:30:52;;;;;;;64.22;35.38;;;3.50;99.90;;;;;;2076065;28;20124;-69
2022/12/11 04:31:52;;;;;;;60.97;34.92;;;3.50;99.90;;;;;;2075493;28;20021;-69
2022/12/11 04:32:53;;;;;;;63.42;34.47;;;3.50;99.90;;;;;;2075962;28;20013;-69
2022/12/11 04:33:54;;;;;;;58.80;33.63;;;3.50;99.90;;;;;;2074894;28;20036;-69
2022/12/11 04:34:55;;;;;;;61.83;34.25;;;3.60;99.90;;;;;;2074796;28;20025;-69
2022/12/11 04:35:59;;;;;;;62.65;34.60;;;3.60;99.90;;;;;;2075411;28;20056;-69
2022/12/11 04:37:00;;;;;;;60.00;33.50;;;3.60;99.90;;;;;;2074888;28;20029;-69
2022/12/11 04:38:00;;;;;;;56.53;32.42;;;3.60;99.90;;;;;;2076404;28;20112;-69
2022/12/11 04:39:02;;;;;;;61.15;33.60;;;3.60;99.90;;;;;;2076581;28;20022;-69
2022/12/11 04:40:05;;;;;;;56.13;32.47;;;3.60;99.90;;;;;;2073395;28;20026;-69
2022/12/11 04:41:08;;;;;;;63.20;34.22;;;3.60;99.90;;;;;;2077649;28;20030;-69
2022/12/11 04:42:09;;;;;;;61.75;34.97;;;3.60;99.90;;;;;;2074837;28;20044;-69
2022/12/11 04:43:09;;;;;;;62.20;35.25;;;3.60;99.90;;;;;;2075020;28;20867;-69
2022/12/11 04:44:10;;;;;;;55.65;32.45;;;3.60;99.90;;;;;;2076901;28;20030;-69
2022/12/11 04:45:11;;;;;;;66.75;35.67;;;3.60;99.90;;;;;;2073760;28;20086;-69
2022/12/11 04:46:14;;;;;;;58.97;33.25;;;3.60;99.90;;;;;;2074717;28;20533;-69
2022/12/11 04:47:16;;;;;;;63.30;35.13;;;3.60;99.90;;;;;;2074390;28;20038;-69
2022/12/11 04:48:16;;;;;;;70.25;35.47;;;3.60;99.90;;;;;;2073648;28;20022;-69
2022/12/11 04:49:17;;;;;;;59.45;33.15;;;3.60;99.90;;;;;;2076081;28;20037;-69
2022/12/11 04:50:17;;;;;;;56.33;32.28;;;3.60;99.90;;;;;;2076198;28;20124;-69
2022/12/11 04:51:19;;;;;;;59.67;34.00;;;3.60;99.90;;;;;;2076578;28;20581;-69
2022/12/11 04:52:19;;;;;;;58.58;33.58;;;3.60;99.90;;;;;;2075788;28;20025;-69
2022/12/11 04:53:20;;;;;;;54.60;31.70;;;3.60;99.90;;;;;;2074980;28;20059;-69
2022/12/11 04:54:20;;;;;;;62.33;35.75;;;3.70;99.90;;;;;;2074594;28;20062;-69
2022/12/11 04:55:21;;;;;;;63.75;35.42;;;3.70;99.90;;;;;;2076653;28;20060;-69
2022/12/11 04:56:22;;;;;;;60.10;32.72;;;3.60;99.90;;;;;;2074685;28;20103;-69
2022/12/11 04:57:22;;;;;;;58.40;32.63;;;3.70;99.90;;;;;;2076119;28;20021;-69
2022/12/11 04:58:24;;;;;;;57.28;32.08;;;3.60;99.90;;;;;;2076795;28;20040;-69
2022/12/11 04:59:24;;;;;;;53.33;31.77;;;3.70;99.90;;;;;;2076810;28;20667;-69
2022/12/11 05:00:26;;;;;;;58.70;32.95;;;3.70;99.90;;;;;;2077785;28;20381;-69
2022/12/11 05:01:26;;;;;;;59.08;34.22;;;3.70;99.90;;;;;;2076683;28;20026;-69
2022/12/11 05:02:27;;;;;;;58.88;33.50;;;3.60;99.90;;;;;;2078096;28;20025;-69
2022/12/11 05:03:27;;;;;;;59.65;33.33;;;3.70;99.90;;;;;;2077484;28;20034;-69
2022/12/11 05:04:32;;;;;;;55.88;32.92;;;3.70;99.90;;;;;;2077729;28;20088;-69
2022/12/11 05:05:33;;;;;;;61.30;33.47;;;3.70;99.90;;;;;;2077065;28;20025;-69
2022/12/11 05:06:33;;;;;;;60.53;33.05;;;3.70;99.90;;;;;;2076527;28;20487;-69
2022/12/11 05:07:34;;;;;;;54.53;32.10;;;3.70;99.90;;;;;;2077056;28;20117;-69
2022/12/11 05:08:36;;;;;;;57.35;33.58;;;3.70;99.90;;;;;;2077960;28;20401;-69
2022/12/11 05:09:37;;;;;;;60.17;32.17;;;3.70;99.90;;;;;;2077165;28;20120;-69
2022/12/11 05:10:37;;;;;;;57.63;32.53;;;3.70;99.90;;;;;;2076985;28;20030;-69
2022/12/11 05:11:38;;;;;;;59.17;32.28;;;3.70;99.90;;;;;;2078523;28;20063;-69
2022/12/11 05:12:39;;;;;;;57.60;31.88;;;3.70;99.90;;;;;;2076458;28;20155;-69
2022/12/11 05:13:40;;;;;;;59.78;33.47;;;3.70;99.90;;;;;;2076553;28;20037;-69
2022/12/11 05:14:40;;;;;;;54.47;33.45;;;3.70;99.90;;;;;;2076236;28;20587;-69
2022/12/11 05:15:41;;;;;;;55.08;33.38;;;3.70;99.90;;;;;;2077846;28;20401;-69
2022/12/11 05:16:41;;;;;;;55.75;31.23;;;3.70;99.90;;;;;;2077719;28;20048;-69
2022/12/11 05:17:42;;;;;;;49.70;30.30;;;3.70;99.90;;;;;;2078091;28;20033;-69
2022/12/11 05:18:43;;;;;;;54.00;31.30;;;3.70;99.90;;;;;;2078481;28;20053;-69
2022/12/11 05:19:45;;;;;;;55.83;31.52;;;3.70;99.90;;;;;;2077150;28;20052;-69
2022/12/11 05:20:55;;;;;;;52.40;31.27;;;3.80;99.90;;;;;;2076550;28;20025;-69
2022/12/11 05:21:56;;;;;;;50.65;29.75;;;3.80;99.90;;;;;;2077638;28;20376;-69
2022/12/11 05:22:56;;;;;;;57.65;33.15;;;3.70;99.90;;;;;;2077431;28;20356;-69
2022/12/11 05:23:57;;;;;;;56.17;32.17;;;3.80;99.90;;;;;;2077456;28;20013;-69
2022/12/11 05:24:58;;;;;;;57.55;33.10;;;3.80;99.90;;;;;;2076861;28;20025;-69
2022/12/11 05:26:05;;;;;;;54.92;32.58;;;3.80;99.90;;;;;;2075983;28;20843;-69
2022/12/11 05:27:06;;;;;;;52.78;30.42;;;3.80;99.90;;;;;;2075996;28;20076;-69
2022/12/11 05:28:06;;;;;;;52.90;30.88;;;3.80;99.90;;;;;;2077204;28;20032;-69
2022/12/11 05:29:07;;;;;;;49.15;29.42;;;3.80;99.90;;;;;;2076657;28;20106;-69
2022/12/11 05:30:09;;;;;;;52.80;30.30;;;3.80;99.90;;;;;;2076063;28;20590;-69
2022/12/11 05:31:16;;;;;;;56.10;30.88;;;3.80;99.90;;;;;;2078315;28;20040;-69
2022/12/11 05:32:17;;;;;;;52.78;32.10;;;3.80;99.90;;;;;;2076118;28;20075;-69
2022/12/11 05:33:17;;;;;;;54.38;31.48;;;3.80;99.90;;;;;;2076141;28;20083;-69
2022/12/11 05:34:18;;;;;;;56.30;30.08;;;3.80;99.90;;;;;;2076445;28;20037;-69